createdAt,value
2019-04-22T00:01:50.070Z,10.13
2019-04-22T00:04:34.092Z,10.40
2019-04-22T00:07:12.525Z,9.45
2019-04-22T00:09:49.948Z,9.98
2019-04-22T00:12:19.520Z,10.98
2019-04-22T00:14:44.998Z,10.20
2019-04-22T00:17:24.237Z,9.10
2019-04-22T00:19:50.730Z,9.03
2019-04-22T00:22:22.171Z,9.18
2019-04-22T00:24:51.172Z,9.95
2019-04-22T00:27:28.177Z,8.00
2019-04-22T00:32:24.351Z,8.23
2019-04-22T00:35:03.905Z,7.80
2019-04-22T00:37:39.052Z,7.37
2019-04-22T00:40:10.965Z,8.35
2019-04-22T00:45:11.669Z,7.22
2019-04-22T00:52:43.734Z,6.65
2019-04-22T00:55:14.970Z,6.55
2019-04-22T00:57:42.589Z,6.65
2019-04-22T01:00:11.879Z,6.42
2019-04-22T01:02:44.527Z,6.25
2019-04-22T01:05:18.399Z,6.42
2019-04-22T01:07:36.872Z,6.10
2019-04-22T01:10:12.854Z,6.37
2019-04-22T01:13:01.647Z,6.30
2019-04-22T01:15:17.921Z,5.72
2019-04-22T01:17:45.289Z,6.53
2019-04-22T01:20:38.544Z,5.50
2019-04-22T01:22:38.157Z,5.72
2019-04-22T01:25:14.672Z,5.85
2019-04-22T01:27:39.278Z,5.72
2019-04-22T01:30:03.654Z,6.33
2019-04-22T01:32:31.132Z,5.60
2019-04-22T01:35:08.422Z,5.78
2019-04-22T01:37:45.853Z,5.72
2019-04-22T01:40:24.229Z,6.58
2019-04-22T01:42:57.577Z,5.95
2019-04-22T01:45:25.844Z,6.50
2019-04-22T01:47:51.428Z,5.90
2019-04-22T01:50:21.419Z,6.28
2019-04-22T01:53:02.043Z,5.85
2019-04-22T01:55:29.518Z,6.78
2019-04-22T01:57:47.667Z,6.22
2019-04-22T02:00:18.977Z,6.17
2019-04-22T02:03:02.382Z,6.67
2019-04-22T02:05:22.853Z,6.60
2019-04-22T02:07:56.102Z,6.40
2019-04-22T02:10:34.684Z,6.87
2019-04-22T02:13:02.617Z,7.08
2019-04-22T02:15:24.058Z,6.92
2019-04-22T02:18:04.743Z,6.83
2019-04-22T02:20:32.994Z,6.90
2019-04-22T02:23:42.860Z,7.10
2019-04-22T02:25:49.500Z,7.12
2019-04-22T02:28:25.633Z,7.17
2019-04-22T02:31:13.817Z,7.92
2019-04-22T02:33:51.354Z,7.90
2019-04-22T02:36:09.363Z,7.78
2019-04-22T02:38:34.876Z,8.20
2019-04-22T02:41:18.460Z,7.28
2019-04-22T02:43:41.095Z,7.78
2019-04-22T02:46:18.430Z,7.53
2019-04-22T02:48:54.031Z,8.63
2019-04-22T02:51:02.489Z,8.00
2019-04-22T02:53:45.057Z,8.20
2019-04-22T02:56:15.590Z,8.63
2019-04-22T02:58:41.118Z,8.95
2019-04-22T03:01:06.101Z,7.62
2019-04-22T03:03:45.084Z,9.23
2019-04-22T03:08:31.892Z,9.05
2019-04-22T03:11:04.076Z,8.90
2019-04-22T03:13:38.367Z,9.25
2019-04-22T03:16:08.078Z,9.08
2019-04-22T03:18:38.480Z,9.65
2019-04-22T03:26:11.944Z,9.55
2019-04-22T03:28:49.741Z,9.55
2019-04-22T03:33:55.376Z,10.30
2019-04-22T03:36:41.424Z,10.18
2019-04-22T03:38:54.369Z,10.25
2019-04-22T03:41:31.826Z,10.48
2019-04-22T03:44:01.046Z,9.55
2019-04-22T03:46:17.094Z,10.63
2019-04-22T03:48:55.067Z,10.90
2019-04-22T03:51:33.915Z,11.18
2019-04-22T03:53:55.955Z,10.23
2019-04-22T03:56:36.596Z,10.23
2019-04-22T03:58:49.575Z,10.85
2019-04-22T04:01:18.740Z,11.12
2019-04-22T04:03:51.333Z,10.50
2019-04-22T04:06:17.377Z,9.90
2019-04-22T04:08:42.114Z,9.43
2019-04-22T04:11:30.339Z,9.60
2019-04-22T04:13:52.170Z,9.28
2019-04-22T04:16:19.258Z,9.53
2019-04-22T04:26:28.889Z,8.60
2019-04-22T04:33:53.922Z,8.80
2019-04-22T04:36:32.259Z,8.00
2019-04-22T04:38:51.760Z,8.13
2019-04-22T04:41:34.162Z,7.87
2019-04-22T04:44:08.358Z,7.70
2019-04-22T04:46:36.073Z,7.20
2019-04-22T04:54:05.701Z,6.92
2019-04-22T04:56:36.080Z,7.10
2019-04-22T04:59:09.853Z,6.35
2019-04-22T05:01:35.612Z,6.60
2019-04-22T05:06:39.272Z,6.60
2019-04-22T05:09:10.879Z,6.08
2019-04-22T05:11:42.928Z,6.67
2019-04-22T05:16:34.394Z,6.20
2019-04-22T05:18:58.829Z,6.67
2019-04-22T05:21:24.283Z,6.10
2019-04-22T05:24:07.992Z,6.03
2019-04-22T05:26:32.584Z,6.72
2019-04-22T05:29:08.046Z,6.28
2019-04-22T05:31:38.961Z,5.83
2019-04-22T05:34:04.121Z,6.78
2019-04-22T05:36:32.803Z,6.67
2019-04-22T05:39:02.877Z,5.40
2019-04-22T05:41:39.808Z,6.53
2019-04-22T05:44:04.984Z,5.22
2019-04-22T05:46:34.555Z,5.45
2019-04-22T05:49:09.837Z,6.40
2019-04-22T05:51:38.448Z,5.05
2019-04-22T05:54:09.064Z,5.30
2019-04-22T06:01:45.684Z,5.45
2019-04-22T06:06:37.071Z,5.78
2019-04-22T06:09:12.475Z,5.40
2019-04-22T06:11:33.974Z,5.20
2019-04-22T06:14:07.869Z,5.85
2019-04-22T06:16:44.462Z,5.53
2019-04-22T06:19:14.033Z,5.92
2019-04-22T06:21:42.791Z,5.70
2019-04-22T06:24:27.573Z,5.05
2019-04-22T06:26:53.545Z,4.65
2019-04-22T06:34:22.297Z,5.30
2019-04-22T06:36:54.006Z,5.08
2019-04-22T06:39:23.511Z,4.85
2019-04-22T06:46:52.298Z,5.15
2019-04-22T06:49:28.006Z,4.97
2019-04-22T06:51:55.783Z,5.37
2019-04-22T06:54:21.700Z,4.37
2019-04-22T06:56:57.655Z,4.78
2019-04-22T06:59:26.589Z,4.58
2019-04-22T07:02:00.848Z,5.12
2019-04-22T07:04:23.141Z,4.80
2019-04-22T07:06:56.562Z,4.22
2019-04-22T07:09:28.480Z,4.33
2019-04-22T07:12:02.211Z,4.08
2019-04-22T07:14:23.865Z,4.40
2019-04-22T07:16:56.155Z,3.45
2019-04-22T07:19:31.918Z,3.83
2019-04-22T07:21:57.285Z,3.83
2019-04-22T07:27:00.498Z,3.60
2019-04-22T07:29:29.348Z,3.15
2019-04-22T07:32:03.299Z,3.72
2019-04-22T07:37:09.444Z,3.20
2019-04-22T07:39:35.049Z,3.27
2019-04-22T07:42:05.560Z,3.22
2019-04-22T07:47:13.979Z,3.58
2019-04-22T07:49:41.136Z,3.02
2019-04-22T07:52:03.664Z,3.62
2019-04-22T07:54:33.151Z,3.55
2019-04-22T07:57:12.035Z,3.40
2019-04-22T07:59:35.303Z,3.67
2019-04-22T08:02:09.333Z,4.08
2019-04-22T08:07:24.218Z,3.80
2019-04-22T08:09:47.260Z,3.92
2019-04-22T08:12:02.968Z,4.75
2019-04-22T08:14:42.253Z,4.70
2019-04-22T08:17:30.870Z,3.87
2019-04-22T08:19:44.750Z,3.80
2019-04-22T08:22:07.668Z,4.55
2019-04-22T08:24:45.123Z,4.05
2019-04-22T08:27:22.558Z,3.52
2019-04-22T08:29:53.481Z,3.40
2019-04-22T08:32:20.367Z,3.58
2019-04-22T08:34:42.666Z,3.33
2019-04-22T08:37:44.778Z,3.77
2019-04-22T08:39:48.605Z,3.17
2019-04-22T08:42:29.443Z,3.08
2019-04-22T08:45:09.253Z,3.35
2019-04-22T08:47:26.259Z,3.33
2019-04-22T08:49:56.353Z,3.90
2019-04-22T08:52:25.284Z,3.98
2019-04-22T08:57:31.562Z,3.83
2019-04-22T08:59:59.611Z,4.42
2019-04-22T09:02:25.966Z,4.83
2019-04-22T09:04:55.877Z,4.67
2019-04-22T09:07:28.414Z,3.90
2019-04-22T09:09:55.860Z,3.67
2019-04-22T09:12:34.758Z,4.03
2019-04-22T09:14:49.742Z,3.92
2019-04-22T09:17:31.536Z,3.90
2019-04-22T09:20:00.268Z,4.20
2019-04-22T09:22:26.648Z,3.85
2019-04-22T09:24:57.371Z,4.15
2019-04-22T09:29:58.484Z,4.20
2019-04-22T09:32:36.337Z,3.77
2019-04-22T09:35:03.434Z,4.30
2019-04-22T09:37:38.204Z,4.28
2019-04-22T09:40:04.567Z,4.67
2019-04-22T09:42:39.656Z,4.72
2019-04-22T09:45:06.094Z,3.90
2019-04-22T09:47:42.564Z,4.12
2019-04-22T09:52:39.343Z,4.03
2019-04-22T09:55:12.952Z,4.40
2019-04-22T09:57:35.341Z,4.72
2019-04-22T10:00:10.965Z,4.12
2019-04-22T10:02:42.804Z,4.25
2019-04-22T10:05:13.263Z,4.30
2019-04-22T10:07:43.157Z,4.25
2019-04-22T10:10:15.785Z,4.62
2019-04-22T10:15:11.292Z,4.10
2019-04-22T10:17:32.249Z,4.42
2019-04-22T10:20:14.961Z,4.60
2019-04-22T10:25:14.568Z,5.30
2019-04-22T10:27:45.631Z,5.97
2019-04-22T10:30:08.566Z,6.15
2019-04-22T10:32:42.013Z,6.20
2019-04-22T10:35:14.414Z,7.25
2019-04-22T10:37:40.398Z,8.53
2019-04-22T10:40:13.660Z,8.53
2019-04-22T10:42:43.591Z,8.58
2019-04-22T10:45:14.524Z,9.18
2019-04-22T10:47:44.107Z,6.80
2019-04-22T10:50:14.450Z,8.05
2019-04-22T10:52:43.953Z,6.78
2019-04-22T10:55:14.791Z,11.10
2019-04-22T10:57:48.499Z,7.17
2019-04-22T11:00:17.808Z,7.58
2019-04-22T11:02:47.801Z,8.48
2019-04-22T11:05:17.940Z,8.55
2019-04-22T11:07:53.783Z,8.00
2019-04-22T11:10:33.532Z,9.78
2019-04-22T11:12:49.200Z,10.43
2019-04-22T11:15:18.957Z,9.85
2019-04-22T11:17:49.498Z,11.75
2019-04-22T11:20:19.874Z,11.00
2019-04-22T11:22:50.917Z,11.10
2019-04-22T11:25:19.794Z,11.03
2019-04-22T11:27:49.409Z,11.70
2019-04-22T11:30:23.675Z,11.38
2019-04-22T11:32:50.701Z,11.73
2019-04-22T11:35:21.526Z,11.65
2019-04-22T11:37:50.868Z,12.45
2019-04-22T11:40:30.260Z,11.60
2019-04-22T11:42:52.154Z,11.68
2019-04-22T11:45:23.421Z,11.40
2019-04-22T11:47:53.071Z,10.95
2019-04-22T11:50:24.201Z,11.33
2019-04-22T11:52:53.230Z,11.57
2019-04-22T11:55:22.665Z,11.22
2019-04-22T11:57:52.177Z,10.82
2019-04-22T12:00:22.967Z,11.35
2019-04-22T12:02:51.954Z,12.68
2019-04-22T12:05:21.768Z,12.25
2019-04-22T12:07:51.180Z,12.30
2019-04-22T12:10:30.950Z,12.55
2019-04-22T12:12:51.958Z,12.43
2019-04-22T12:15:22.623Z,11.50
2019-04-22T12:17:52.989Z,12.10
2019-04-22T12:20:23.423Z,12.98
2019-04-22T12:22:53.390Z,12.65
2019-04-22T12:25:38.968Z,11.10
2019-04-22T12:27:54.953Z,10.60
2019-04-22T12:30:25.604Z,11.05
2019-04-22T12:32:54.785Z,10.90
2019-04-22T12:35:24.329Z,11.00
2019-04-22T12:37:58.876Z,11.53
2019-04-22T12:40:34.196Z,12.58
2019-04-22T12:42:55.460Z,11.95
2019-04-22T12:45:27.465Z,11.95
2019-04-22T12:47:56.271Z,9.70
2019-04-22T12:50:29.822Z,11.55
2019-04-22T12:53:01.318Z,11.28
2019-04-22T12:55:27.869Z,10.78
2019-04-22T12:58:00.346Z,10.30
2019-04-22T13:00:30.035Z,10.50
2019-04-22T13:03:00.958Z,10.72
2019-04-22T13:05:31.389Z,9.90
2019-04-22T13:08:00.264Z,9.73
2019-04-22T13:10:41.604Z,9.53
2019-04-22T13:13:00.969Z,9.85
2019-04-22T13:15:30.865Z,9.33
2019-04-22T13:18:10.991Z,9.30
2019-04-22T13:20:30.549Z,9.30
2019-04-22T13:22:59.390Z,8.55
2019-04-22T13:25:30.309Z,8.30
2019-04-22T13:27:58.952Z,7.53
2019-04-22T13:30:28.396Z,8.73
2019-04-22T13:32:58.704Z,8.78
2019-04-22T13:35:28.272Z,8.08
2019-04-22T13:37:59.364Z,7.70
2019-04-22T13:40:28.920Z,7.42
2019-04-22T13:42:58.683Z,7.10
2019-04-22T13:45:28.091Z,6.10
2019-04-22T13:48:16.699Z,6.17
2019-04-22T13:50:56.476Z,6.42
2019-04-22T13:58:13.992Z,6.28
2019-04-22T14:00:36.393Z,6.12
2019-04-22T14:03:08.747Z,5.55
2019-04-22T14:05:40.581Z,6.50
2019-04-22T14:08:10.756Z,6.37
2019-04-22T14:10:40.650Z,5.22
2019-04-22T14:13:09.950Z,5.10
2019-04-22T14:15:40.244Z,5.40
2019-04-22T14:18:10.752Z,4.70
2019-04-22T14:20:40.883Z,4.67
2019-04-22T14:23:11.885Z,4.55
2019-04-22T14:25:41.098Z,4.85
2019-04-22T14:28:15.284Z,4.45
2019-04-22T14:30:40.603Z,4.17
2019-04-22T14:33:09.851Z,4.12
2019-04-22T14:35:39.858Z,4.33
2019-04-22T14:38:10.176Z,3.85
2019-04-22T14:40:43.521Z,3.85
2019-04-22T14:43:43.675Z,4.03
2019-04-22T14:46:20.388Z,3.87
2019-04-22T14:48:43.654Z,2.85
2019-04-22T14:51:06.226Z,3.22
2019-04-22T14:53:40.048Z,2.70
2019-04-22T14:55:46.491Z,3.00
2019-04-22T14:58:17.137Z,3.00
2019-04-22T15:00:46.096Z,3.17
2019-04-22T15:03:15.621Z,2.50
2019-04-22T15:05:46.174Z,2.90
2019-04-22T15:08:15.478Z,2.40
2019-04-22T15:10:44.191Z,2.45
2019-04-22T15:13:13.447Z,2.40
2019-04-22T15:16:02.975Z,2.50
2019-04-22T15:18:38.139Z,2.80
2019-04-22T15:21:09.070Z,2.40
2019-04-22T15:23:38.545Z,3.10
2019-04-22T15:26:08.543Z,2.40
2019-04-22T15:28:37.590Z,2.80
2019-04-22T15:31:06.791Z,3.02
2019-04-22T15:33:35.650Z,2.58
2019-04-22T15:36:05.753Z,3.35
2019-04-22T15:38:36.330Z,3.02
2019-04-22T15:41:06.848Z,2.40
2019-04-22T15:43:37.109Z,3.55
2019-04-22T15:46:07.561Z,3.37
2019-04-22T15:48:37.697Z,2.70
2019-04-22T15:51:06.984Z,2.58
2019-04-22T15:53:35.915Z,3.05
2019-04-22T15:56:05.354Z,3.50
2019-04-22T15:58:35.182Z,3.25
2019-04-22T16:01:14.043Z,4.40
2019-04-22T16:03:36.800Z,3.45
2019-04-22T16:06:06.313Z,2.83
2019-04-22T16:08:37.311Z,3.25
2019-04-22T16:11:06.146Z,3.30
2019-04-22T16:13:38.036Z,3.40
2019-04-22T16:16:06.786Z,3.33
2019-04-22T16:18:36.343Z,5.50
2019-04-22T16:21:07.003Z,3.35
2019-04-22T16:23:50.156Z,3.20
2019-04-22T16:26:40.211Z,3.20
2019-04-22T16:29:15.495Z,2.90
2019-04-22T16:31:45.202Z,3.05
2019-04-22T16:34:15.505Z,3.30
2019-04-22T16:36:44.931Z,2.83
2019-04-22T16:39:15.273Z,3.22
2019-04-22T16:41:44.642Z,3.67
2019-04-22T16:44:14.363Z,2.90
2019-04-22T16:46:43.960Z,3.62
2019-04-22T16:49:14.006Z,3.47
2019-04-22T16:51:43.563Z,3.40
2019-04-22T16:54:13.764Z,3.50
2019-04-22T16:56:43.863Z,3.15
2019-04-22T16:59:12.960Z,4.87
2019-04-22T17:01:43.605Z,3.35
2019-04-22T17:04:26.538Z,3.37
2019-04-22T17:06:55.545Z,3.42
2019-04-22T17:09:25.654Z,3.60
2019-04-22T17:11:56.106Z,3.40
2019-04-22T17:14:32.769Z,3.33
2019-04-22T17:16:56.714Z,3.92
2019-04-22T17:19:26.987Z,3.35
2019-04-22T17:21:57.439Z,3.50
2019-04-22T17:24:27.833Z,3.80
2019-04-22T17:26:57.071Z,3.98
2019-04-22T17:29:26.323Z,3.35
2019-04-22T17:32:00.427Z,3.22
2019-04-22T17:34:27.601Z,3.22
2019-04-22T17:36:57.338Z,3.22
2019-04-22T17:39:42.533Z,3.25
2019-04-22T17:42:16.952Z,4.08
2019-04-22T17:45:01.090Z,3.47
2019-04-22T17:47:30.197Z,3.15
2019-04-22T17:50:08.599Z,3.65
2019-04-22T17:52:41.008Z,3.47
2019-04-22T17:55:07.530Z,3.62
2019-04-22T17:57:40.888Z,3.47
2019-04-22T18:00:06.463Z,3.77
2019-04-22T18:02:32.311Z,3.55
2019-04-22T18:04:56.271Z,4.20
2019-04-22T18:07:42.676Z,4.08
2019-04-22T18:10:27.178Z,4.10
2019-04-22T18:12:53.801Z,4.92
2019-04-22T18:15:14.752Z,4.47
2019-04-22T18:17:47.661Z,4.60
2019-04-22T18:20:14.456Z,4.80
2019-04-22T18:22:39.609Z,5.20
2019-04-22T18:25:11.534Z,4.72
2019-04-22T18:27:59.027Z,5.00
2019-04-22T18:30:14.859Z,5.25
2019-04-22T18:32:53.627Z,5.22
2019-04-22T18:35:20.934Z,5.10
2019-04-22T18:37:54.913Z,5.15
2019-04-22T18:40:24.329Z,5.83
2019-04-22T18:42:56.937Z,4.80
2019-04-22T18:45:39.841Z,4.97
2019-04-22T18:47:48.888Z,5.28
2019-04-22T18:50:36.971Z,5.17
2019-04-22T18:53:21.730Z,5.47
2019-04-22T18:55:48.963Z,5.70
2019-04-22T18:58:18.882Z,6.37
2019-04-22T19:00:36.734Z,5.75
2019-04-22T19:03:13.977Z,5.30
2019-04-22T19:06:11.314Z,6.33
2019-04-22T19:08:34.625Z,5.12
2019-04-22T19:11:08.394Z,6.17
2019-04-22T19:18:44.251Z,6.53
2019-04-22T19:21:20.889Z,11.65
2019-04-22T19:23:37.639Z,6.70
2019-04-22T19:26:13.796Z,6.42
2019-04-22T19:28:46.498Z,6.50
2019-04-22T19:31:20.057Z,6.60
2019-04-22T19:33:52.327Z,7.08
2019-04-22T19:36:14.709Z,6.47
2019-04-22T19:38:40.995Z,6.35
2019-04-22T19:41:19.653Z,7.15
2019-04-22T19:43:51.678Z,6.83
2019-04-22T19:46:14.650Z,6.72
2019-04-22T19:48:53.071Z,7.15
2019-04-22T19:51:23.581Z,7.33
2019-04-22T19:53:51.270Z,6.35
2019-04-22T19:56:17.593Z,6.85
2019-04-22T19:58:49.301Z,6.92
2019-04-22T20:01:32.053Z,6.62
2019-04-22T20:04:16.475Z,6.30
2019-04-22T20:06:44.092Z,6.65
2019-04-22T20:09:22.169Z,6.50
2019-04-22T20:11:43.861Z,6.33
2019-04-22T20:14:17.018Z,6.75
2019-04-22T20:16:38.564Z,6.67
2019-04-22T20:19:21.481Z,6.55
2019-04-22T20:21:50.034Z,6.35
2019-04-22T20:24:06.969Z,6.30
2019-04-22T20:26:49.979Z,6.97
2019-04-22T20:29:29.145Z,7.10
2019-04-22T20:31:54.596Z,6.45
2019-04-22T20:34:27.825Z,5.83
2019-04-22T20:37:12.335Z,6.80
2019-04-22T20:39:20.620Z,6.15
2019-04-22T20:41:53.349Z,6.22
2019-04-22T20:44:29.139Z,6.80
2019-04-22T20:46:49.107Z,6.35
2019-04-22T20:49:25.754Z,6.58
2019-04-22T20:54:33.071Z,6.67
2019-04-22T20:56:54.993Z,6.95
2019-04-22T20:59:27.117Z,6.97
2019-04-22T21:01:58.008Z,7.40
2019-04-22T21:04:23.990Z,6.75
2019-04-22T21:06:55.993Z,7.20
2019-04-22T21:09:33.707Z,7.50
2019-04-22T21:11:59.431Z,7.25
2019-04-22T21:14:28.765Z,7.33
2019-04-22T21:17:09.627Z,6.58
2019-04-22T21:19:40.388Z,7.03
2019-04-22T21:22:08.092Z,7.33
2019-04-22T21:24:34.754Z,7.00
2019-04-22T21:27:10.264Z,7.05
2019-04-22T21:29:33.412Z,6.92
2019-04-22T21:32:10.783Z,7.65
2019-04-22T21:34:43.707Z,7.70
2019-04-22T21:37:14.103Z,7.58
2019-04-22T21:39:36.708Z,6.55
2019-04-22T21:42:09.167Z,6.90
2019-04-22T21:44:38.340Z,6.47
2019-04-22T21:47:14.697Z,6.47
2019-04-22T21:49:45.588Z,7.05
2019-04-22T21:52:13.471Z,6.33
2019-04-22T21:54:47.156Z,7.50
2019-04-22T21:57:28.223Z,7.45
2019-04-22T22:00:06.521Z,7.33
2019-04-22T22:02:35.831Z,6.75
2019-04-22T22:04:57.986Z,7.53
2019-04-22T22:07:17.669Z,8.38
2019-04-22T22:09:59.736Z,7.25
2019-04-22T22:12:37.830Z,7.47
2019-04-22T22:15:05.389Z,7.22
2019-04-22T22:17:31.234Z,7.20
2019-04-22T22:19:57.803Z,7.10
2019-04-22T22:22:45.511Z,6.75
2019-04-22T22:25:10.590Z,6.80
2019-04-22T22:27:37.483Z,6.87
2019-04-22T22:30:18.735Z,7.00
2019-04-22T22:32:35.064Z,7.15
2019-04-22T22:35:10.105Z,7.15
2019-04-22T22:37:27.352Z,6.97
2019-04-22T22:39:57.949Z,6.75
2019-04-22T22:42:30.304Z,7.47
2019-04-22T22:45:03.915Z,7.28
2019-04-22T22:47:39.320Z,6.55
2019-04-22T22:50:09.419Z,6.53
2019-04-22T22:55:12.015Z,6.97
2019-04-22T22:57:47.617Z,6.05
2019-04-22T23:00:15.023Z,6.78
2019-04-22T23:03:03.518Z,6.28
2019-04-22T23:05:18.519Z,6.20
2019-04-22T23:07:50.587Z,6.35
2019-04-22T23:10:19.735Z,6.40
2019-04-22T23:12:51.555Z,6.83
2019-04-22T23:15:13.823Z,6.25
2019-04-22T23:17:30.021Z,6.33
2019-04-22T23:19:59.589Z,6.10
2019-04-22T23:22:36.166Z,6.25
2019-04-22T23:25:22.351Z,6.30
2019-04-22T23:27:56.873Z,6.97
2019-04-22T23:30:23.122Z,6.35
2019-04-22T23:33:05.832Z,6.78
2019-04-22T23:35:42.515Z,6.58
2019-04-22T23:38:18.479Z,6.75
2019-04-22T23:40:47.835Z,6.55
2019-04-22T23:45:57.851Z,6.35
2019-04-22T23:48:17.881Z,6.05
2019-04-22T23:50:55.770Z,6.85
2019-04-22T23:53:47.971Z,6.72
2019-04-22T23:56:01.752Z,6.55
2019-04-22T23:58:49.256Z,6.33
